createdAt,value
2022-11-30T00:02:11.533Z,25.95
2022-11-30T00:04:41.381Z,25.70
2022-11-30T00:07:11.521Z,23.77
2022-11-30T00:09:41.297Z,28.00
2022-11-30T00:12:13.152Z,24.23
2022-11-30T00:14:43.424Z,29.40
2022-11-30T00:17:14.738Z,28.40
2022-11-30T00:19:44.821Z,28.40
2022-11-30T00:22:14.630Z,28.80
2022-11-30T00:24:44.602Z,32.70
2022-11-30T00:27:15.828Z,33.55
2022-11-30T00:29:45.598Z,34.20
2022-11-30T00:32:15.350Z,40.83
2022-11-30T00:34:45.662Z,43.72
2022-11-30T00:37:16.034Z,47.90
2022-11-30T00:39:45.913Z,48.70
2022-11-30T00:42:17.093Z,44.08
2022-11-30T00:44:47.028Z,41.70
2022-11-30T00:49:50.307Z,34.00
2022-11-30T00:52:20.093Z,22.33
2022-11-30T00:54:49.870Z,17.10
2022-11-30T00:57:21.026Z,20.30
2022-11-30T00:59:50.970Z,10.20
2022-11-30T01:02:20.733Z,13.30
2022-11-30T01:04:50.644Z,14.65
2022-11-30T01:07:20.783Z,18.88
2022-11-30T01:09:50.569Z,9.48
2022-11-30T01:12:22.366Z,9.73
2022-11-30T01:14:52.886Z,19.35
2022-11-30T01:17:23.147Z,12.57
2022-11-30T01:19:53.083Z,18.45
2022-11-30T01:22:22.841Z,14.65
2022-11-30T01:24:52.735Z,10.32
2022-11-30T01:27:24.395Z,9.85
2022-11-30T01:29:54.180Z,18.27
2022-11-30T01:32:23.964Z,12.75
2022-11-30T01:34:53.928Z,10.23
2022-11-30T01:37:23.921Z,12.40
2022-11-30T01:39:53.645Z,14.00
2022-11-30T01:42:24.745Z,12.45
2022-11-30T01:44:57.072Z,12.63
2022-11-30T01:47:31.636Z,12.15
2022-11-30T01:50:07.592Z,12.10
2022-11-30T01:52:41.236Z,11.32
2022-11-30T01:55:18.583Z,10.75
2022-11-30T01:57:55.269Z,7.10
2022-11-30T02:00:25.405Z,9.75
2022-11-30T02:03:01.149Z,9.25
2022-11-30T02:05:32.580Z,8.88
2022-11-30T02:08:02.642Z,8.23
2022-11-30T02:10:35.582Z,9.77
2022-11-30T02:13:41.264Z,8.57
2022-11-30T02:16:24.172Z,13.43
2022-11-30T02:19:05.952Z,10.60
2022-11-30T02:21:42.710Z,9.07
2022-11-30T02:24:38.248Z,10.15
2022-11-30T02:27:26.967Z,9.32
2022-11-30T02:30:04.549Z,7.57
2022-11-30T02:32:40.031Z,10.43
2022-11-30T02:35:11.327Z,9.20
2022-11-30T02:37:42.983Z,8.02
2022-11-30T02:40:16.894Z,9.93
2022-11-30T02:45:20.054Z,9.38
2022-11-30T02:47:56.713Z,8.85
2022-11-30T02:50:31.790Z,10.38
2022-11-30T02:53:02.509Z,13.10
2022-11-30T02:55:32.839Z,15.20
2022-11-30T02:58:02.587Z,9.90
2022-11-30T03:00:33.666Z,9.63
2022-11-30T03:03:03.368Z,10.30
2022-11-30T03:05:33.154Z,9.77
2022-11-30T03:08:02.965Z,11.70
2022-11-30T03:10:32.862Z,10.05
2022-11-30T03:13:03.135Z,12.57
2022-11-30T03:15:34.723Z,11.00
2022-11-30T03:18:05.758Z,12.35
2022-11-30T03:20:35.554Z,10.23
2022-11-30T03:23:05.361Z,12.30
2022-11-30T03:25:35.704Z,11.10
2022-11-30T03:28:05.732Z,11.40
2022-11-30T03:30:36.905Z,11.55
2022-11-30T03:33:06.631Z,12.35
2022-11-30T03:35:36.390Z,14.27
2022-11-30T03:38:06.204Z,15.23
2022-11-30T03:40:37.669Z,16.70
2022-11-30T03:43:07.442Z,12.32
2022-11-30T03:45:38.740Z,13.18
2022-11-30T03:48:08.572Z,31.23
2022-11-30T03:50:38.332Z,12.65
2022-11-30T03:53:08.149Z,12.07
2022-11-30T03:55:37.892Z,11.70
2022-11-30T03:58:07.732Z,10.98
2022-11-30T04:00:39.609Z,12.73
2022-11-30T04:03:09.431Z,10.57
2022-11-30T04:05:39.201Z,14.20
2022-11-30T04:08:08.970Z,11.88
2022-11-30T04:10:38.951Z,12.90
2022-11-30T04:13:09.256Z,14.05
2022-11-30T04:15:40.890Z,15.13
2022-11-30T04:18:11.301Z,16.05
2022-11-30T04:20:41.048Z,11.65
2022-11-30T04:23:11.539Z,13.07
2022-11-30T04:25:42.185Z,14.38
2022-11-30T04:28:12.150Z,12.18
2022-11-30T04:30:44.364Z,16.55
2022-11-30T04:33:15.134Z,15.15
2022-11-30T04:35:48.189Z,14.32
2022-11-30T04:38:18.074Z,12.98
2022-11-30T04:40:47.787Z,13.70
2022-11-30T04:43:17.796Z,15.63
2022-11-30T04:45:49.651Z,9.57
2022-11-30T04:48:20.527Z,13.80
2022-11-30T04:50:50.335Z,10.50
2022-11-30T04:53:20.230Z,11.50
2022-11-30T04:55:50.199Z,11.80
2022-11-30T04:58:20.052Z,15.27
2022-11-30T05:00:51.736Z,10.18
2022-11-30T05:03:21.542Z,11.07
2022-11-30T05:05:51.301Z,16.90
2022-11-30T05:08:21.177Z,13.20
2022-11-30T05:10:53.507Z,16.48
2022-11-30T05:13:25.574Z,13.67
2022-11-30T05:15:57.328Z,12.35
2022-11-30T05:18:29.415Z,12.38
2022-11-30T05:20:59.234Z,18.45
2022-11-30T05:23:29.530Z,14.07
2022-11-30T05:25:59.233Z,15.32
2022-11-30T05:28:29.012Z,14.95
2022-11-30T05:31:04.166Z,15.00
2022-11-30T05:33:34.588Z,15.48
2022-11-30T05:36:10.129Z,15.20
2022-11-30T05:38:40.855Z,16.83
2022-11-30T05:41:10.592Z,23.98
2022-11-30T05:43:40.719Z,12.98
2022-11-30T05:46:11.936Z,13.98
2022-11-30T05:48:42.110Z,13.95
2022-11-30T05:51:15.393Z,11.98
2022-11-30T05:53:45.931Z,13.18
2022-11-30T05:56:17.462Z,11.73
2022-11-30T05:58:48.032Z,9.48
2022-11-30T06:01:24.526Z,10.15
2022-11-30T06:03:55.068Z,8.32
2022-11-30T06:06:25.092Z,10.63
2022-11-30T06:08:55.563Z,9.35
2022-11-30T06:11:25.694Z,12.63
2022-11-30T06:13:55.957Z,13.25
2022-11-30T06:16:27.991Z,9.82
2022-11-30T06:18:58.378Z,16.13
2022-11-30T06:21:28.186Z,9.13
2022-11-30T06:23:58.419Z,11.20
2022-11-30T06:26:28.323Z,8.18
2022-11-30T06:28:58.079Z,10.32
2022-11-30T06:31:29.280Z,14.73
2022-11-30T06:34:07.363Z,9.50
2022-11-30T06:36:37.134Z,10.40
2022-11-30T06:39:06.835Z,10.02
2022-11-30T06:41:36.628Z,11.10
2022-11-30T06:44:09.242Z,9.75
2022-11-30T06:46:40.353Z,8.32
2022-11-30T06:49:10.168Z,7.65
2022-11-30T06:51:39.929Z,15.55
2022-11-30T06:54:09.724Z,11.50
2022-11-30T06:56:39.385Z,15.80
2022-11-30T06:59:09.472Z,12.30
2022-11-30T07:01:40.771Z,12.77
2022-11-30T07:04:10.605Z,13.38
2022-11-30T07:06:40.408Z,12.00
2022-11-30T07:09:10.454Z,25.10
2022-11-30T07:11:40.838Z,20.77
2022-11-30T07:14:11.025Z,24.67
2022-11-30T07:16:42.944Z,16.70
2022-11-30T07:19:13.020Z,16.00
2022-11-30T07:21:42.826Z,16.00
2022-11-30T07:24:30.613Z,13.82
2022-11-30T07:27:01.702Z,14.32
2022-11-30T07:29:31.775Z,15.38
2022-11-30T07:32:03.147Z,15.10
2022-11-30T07:34:33.003Z,14.13
2022-11-30T07:37:02.846Z,13.00
2022-11-30T07:39:32.943Z,12.95
2022-11-30T07:42:03.018Z,15.07
2022-11-30T07:44:32.985Z,18.70
2022-11-30T07:47:04.302Z,12.32
2022-11-30T07:49:34.197Z,13.88
2022-11-30T07:52:04.671Z,14.98
2022-11-30T07:54:34.436Z,8.48
2022-11-30T07:57:04.286Z,14.00
2022-11-30T07:59:34.050Z,21.50
2022-11-30T08:02:05.242Z,14.40
2022-11-30T08:04:35.171Z,13.85
2022-11-30T08:07:05.022Z,14.10
2022-11-30T08:09:35.274Z,13.75
2022-11-30T08:12:06.210Z,11.85
2022-11-30T08:14:56.897Z,10.90
2022-11-30T08:17:28.269Z,19.75
2022-11-30T08:19:57.988Z,16.33
2022-11-30T08:22:27.829Z,24.02
2022-11-30T08:24:57.610Z,12.55
2022-11-30T08:27:27.591Z,16.42
2022-11-30T08:29:57.454Z,14.45
2022-11-30T08:32:28.716Z,17.92
2022-11-30T08:34:58.419Z,13.43
2022-11-30T08:37:28.182Z,17.33
2022-11-30T08:39:57.924Z,12.32
2022-11-30T08:42:29.069Z,12.10
2022-11-30T08:44:58.984Z,16.08
2022-11-30T08:47:31.576Z,15.63
2022-11-30T08:50:01.809Z,14.40
2022-11-30T08:52:31.619Z,11.27
2022-11-30T08:55:01.342Z,13.88
2022-11-30T08:57:31.372Z,11.55
2022-11-30T09:00:01.584Z,13.85
2022-11-30T09:02:32.838Z,12.30
2022-11-30T09:05:02.722Z,14.40
2022-11-30T09:07:32.612Z,13.10
2022-11-30T09:10:02.637Z,14.02
2022-11-30T09:12:36.505Z,11.40
2022-11-30T09:15:08.049Z,17.23
2022-11-30T09:17:39.746Z,15.55
2022-11-30T09:20:10.176Z,14.93
2022-11-30T09:22:39.985Z,14.70
2022-11-30T09:25:10.668Z,13.80
2022-11-30T09:27:40.363Z,13.15
2022-11-30T09:30:11.260Z,12.32
2022-11-30T09:32:42.408Z,9.95
2022-11-30T09:35:13.077Z,14.20
2022-11-30T09:37:43.104Z,14.65
2022-11-30T09:40:14.674Z,14.40
2022-11-30T09:42:53.751Z,12.32
2022-11-30T09:45:28.662Z,10.50
2022-11-30T09:48:18.190Z,10.10
2022-11-30T09:50:50.635Z,10.23
2022-11-30T09:53:29.463Z,13.10
2022-11-30T09:56:01.584Z,11.48
2022-11-30T09:58:40.975Z,12.95
2022-11-30T10:01:17.380Z,14.65
2022-11-30T10:03:49.097Z,10.88
2022-11-30T10:06:26.355Z,10.65
2022-11-30T10:09:13.601Z,12.95
2022-11-30T10:11:55.189Z,9.48
2022-11-30T10:14:48.941Z,10.05
2022-11-30T10:17:31.585Z,11.27
2022-11-30T10:20:16.905Z,14.18
2022-11-30T10:23:01.919Z,13.98
2022-11-30T10:25:42.058Z,12.10
2022-11-30T10:28:45.686Z,13.90
2022-11-30T10:31:12.289Z,11.48
2022-11-30T10:33:46.592Z,13.10
2022-11-30T10:36:26.495Z,12.95
2022-11-30T10:38:58.871Z,9.90
2022-11-30T10:41:35.053Z,10.13
2022-11-30T10:44:08.002Z,11.13
2022-11-30T10:46:42.449Z,16.20
2022-11-30T10:49:16.423Z,11.80
2022-11-30T10:51:50.881Z,11.60
2022-11-30T10:54:23.051Z,9.93
2022-11-30T10:56:52.780Z,13.50
2022-11-30T10:59:26.563Z,12.93
2022-11-30T11:04:27.943Z,16.17
2022-11-30T11:07:08.981Z,16.77
2022-11-30T11:09:42.266Z,14.88
2022-11-30T11:12:18.757Z,12.90
2022-11-30T11:14:49.104Z,21.85
2022-11-30T11:17:23.985Z,23.33
2022-11-30T11:19:54.065Z,21.65
2022-11-30T11:22:26.841Z,15.63
2022-11-30T11:25:11.822Z,20.10
2022-11-30T11:27:45.003Z,22.23
2022-11-30T11:30:20.193Z,22.52
2022-11-30T11:32:59.340Z,21.50
2022-11-30T11:35:38.539Z,27.40
2022-11-30T11:38:21.815Z,21.92
2022-11-30T11:40:57.347Z,24.40
2022-11-30T11:43:29.705Z,27.75
2022-11-30T11:46:02.970Z,25.10
2022-11-30T11:48:39.998Z,22.40
2022-11-30T11:51:13.990Z,20.15
2022-11-30T11:53:53.864Z,23.05
2022-11-30T11:56:28.291Z,26.67
2022-11-30T11:59:01.870Z,18.60
2022-11-30T12:01:52.183Z,21.27
2022-11-30T12:04:40.427Z,20.48
2022-11-30T12:07:21.489Z,14.07
2022-11-30T12:10:12.621Z,15.38
2022-11-30T12:12:54.975Z,16.40
2022-11-30T12:15:40.029Z,19.92
